Time;durP1;ratioP1;P1;durP2;ratioP2;P2;SDS_P1;SDS_P2;PMS_P1;PMS_P2;Temp;Humidity;BMP_temperature;BMP_pressure;BME280_temperature;BME280_humidity;BME280_pressure;Samples;Min_cycle;Max_cycle;Signal;HPM_P1;HPM_P2
2021/04/18 00:02:14;;;;;;;;;;;;;;;7.91;74.80;101768.19;1781849;80;20689;-84
2021/04/18 00:04:45;;;;;;;;;;;;;;;7.91;74.76;101769.08;1781655;80;22805;-82
2021/04/18 00:07:13;;;;;;;;;;;;;;;7.88;74.72;101766.31;1781551;80;21395;-83
2021/04/18 00:09:40;;;;;;;;;;;;;;;7.86;74.78;101767.03;1781671;80;20289;-84
2021/04/18 00:12:07;;;;;;;;;;;;;;;7.84;74.80;101772.61;1781472;80;21356;-83
2021/04/18 00:14:34;;;;;;;;;;;;;;;7.84;74.84;101779.16;1781500;80;20590;-83
2021/04/18 00:17:01;;;;;;;;;;;;;;;7.84;74.84;101780.47;1781578;80;21894;-82
2021/04/18 00:19:33;;;;;;;;;;;;;;;7.84;74.92;101776.13;1781589;80;20316;-83
2021/04/18 00:21:59;;;;;;;;;;;;;;;7.86;74.97;101773.17;1781228;80;20230;-82
2021/04/18 00:24:29;;;;;;;;;;;;;;;7.87;75.01;101764.92;1781517;80;20362;-83
2021/04/18 00:26:56;;;;;;;;;;;;;;;7.85;75.01;101761.32;1781890;80;20230;-83
2021/04/18 00:29:23;;;;;;;;;;;;;;;7.85;75.09;101769.19;1781587;80;21832;-84
2021/04/18 00:31:51;;;;;;;;;;;;;;;7.82;75.10;101763.77;1781731;80;20712;-83
2021/04/18 00:34:22;;;;;;;;;;;;;;;7.79;75.07;101760.17;1781594;80;20269;-83
2021/04/18 00:36:50;;;;;;;;;;;;;;;7.81;75.24;101756.71;1777985;80;20539;-83
2021/04/18 00:39:20;;;;;;;;;;;;;;;7.80;75.30;101766.30;1767905;80;20251;-86
2021/04/18 00:41:49;;;;;;;;;;;;;;;7.81;75.32;101765.88;1781969;80;21881;-83
2021/04/18 00:44:17;;;;;;;;;;;;;;;7.81;75.34;101758.02;1781784;80;20397;-84
2021/04/18 00:46:44;;;;;;;;;;;;;;;7.80;75.30;101759.75;1781845;80;20269;-84
2021/04/18 00:49:10;;;;;;;;;;;;;;;7.80;75.40;101755.81;1781677;80;20764;-84
2021/04/18 00:51:42;;;;;;;;;;;;;;;7.82;75.41;101748.04;1761666;80;20277;-84
2021/04/18 00:54:25;;;;;;;;;;;;;;;7.81;75.43;101742.30;1747649;82;20252;-82
2021/04/18 00:56:57;;;;;;;;;;;;;;;7.78;75.37;101746.98;1749036;81;20265;-83
2021/04/18 00:59:26;;;;;;;;;;;;;;;7.74;75.40;101743.72;1749123;81;20280;-83
2021/04/18 01:01:54;;;;;;;;;;;;;;;7.72;75.52;101744.94;1774111;80;20281;-83
2021/04/18 01:04:24;;;;;;;;;;;;;;;7.73;75.58;101741.89;1781718;80;20262;-83
2021/04/18 01:06:55;;;;;;;;;;;;;;;7.71;75.66;101744.85;1781826;80;21920;-82
2021/04/18 01:09:23;;;;;;;;;;;;;;;7.71;75.72;101735.27;1781772;80;20258;-83
2021/04/18 01:11:50;;;;;;;;;;;;;;;7.65;75.55;101737.56;1781778;80;20301;-83
2021/04/18 01:14:17;;;;;;;;;;;;;;;7.63;75.67;101747.07;1781694;80;21343;-84
2021/04/18 01:16:45;;;;;;;;;;;;;;;7.61;75.72;101750.44;1781801;80;20305;-83
2021/04/18 01:19:15;;;;;;;;;;;;;;;7.61;75.81;101750.02;1781814;80;21935;-83
2021/04/18 01:21:43;;;;;;;;;;;;;;;7.62;75.82;101745.67;1781709;80;21593;-84
2021/04/18 01:24:11;;;;;;;;;;;;;;;7.60;75.79;101746.89;1781992;80;20230;-84
2021/04/18 01:26:39;;;;;;;;;;;;;;;7.61;75.90;101761.81;1781800;80;20290;-83
2021/04/18 01:29:06;;;;;;;;;;;;;;;7.61;75.86;101770.09;1781911;80;20337;-83
2021/04/18 01:31:33;;;;;;;;;;;;;;;7.61;76.00;101770.09;1781769;80;21894;-84
2021/04/18 01:33:59;;;;;;;;;;;;;;;7.65;76.11;101781.22;1781948;80;20710;-83
2021/04/18 01:36:26;;;;;;;;;;;;;;;7.69;76.18;101780.14;1781653;80;20285;-83
2021/04/18 01:38:53;;;;;;;;;;;;;;;7.71;76.12;101789.41;1781657;80;21263;-83
2021/04/18 01:41:20;;;;;;;;;;;;;;;7.73;76.19;101793.00;1781538;80;20297;-83
2021/04/18 01:43:48;;;;;;;;;;;;;;;7.76;76.17;101798.42;1781686;80;21894;-83
2021/04/18 01:46:15;;;;;;;;;;;;;;;7.75;76.01;101791.36;1781675;80;20314;-84
2021/04/18 01:48:42;;;;;;;;;;;;;;;7.69;75.78;101783.19;1781906;80;20270;-84
2021/04/18 01:51:10;;;;;;;;;;;;;;;7.62;75.57;101783.28;1781894;80;20527;-84
2021/04/18 01:53:37;;;;;;;;;;;;;;;7.60;75.50;101796.68;1781967;80;20270;-84
2021/04/18 01:56:05;;;;;;;;;;;;;;;7.57;75.46;101802.67;1777465;80;22819;-83
2021/04/18 01:58:34;;;;;;;;;;;;;;;7.53;75.43;101803.33;1772283;81;21105;-83
2021/04/18 02:01:02;;;;;;;;;;;;;;;7.53;75.46;101807.67;1772451;81;20215;-83
2021/04/18 02:03:29;;;;;;;;;;;;;;;7.48;75.32;101807.83;1772378;80;20301;-83
2021/04/18 02:05:56;;;;;;;;;;;;;;;7.43;75.29;101806.67;1772280;80;20219;-84
2021/04/18 02:08:24;;;;;;;;;;;;;;;7.38;75.30;101802.50;1772436;81;21076;-84
2021/04/18 02:10:53;;;;;;;;;;;;;;;7.35;75.29;101812.80;1772537;81;20305;-83
2021/04/18 02:13:20;;;;;;;;;;;;;;;7.27;75.34;101811.06;1772399;80;20700;-83
2021/04/18 02:15:48;;;;;;;;;;;;;;;7.23;75.33;101809.10;1772382;81;20309;-83
2021/04/18 02:18:15;;;;;;;;;;;;;;;7.19;75.38;101808.02;1772535;81;20289;-83
2021/04/18 02:20:42;;;;;;;;;;;;;;;7.15;75.40;101809.98;1772442;81;21890;-83
2021/04/18 02:23:09;;;;;;;;;;;;;;;7.12;75.48;101806.30;1772285;80;20258;-83
2021/04/18 02:25:36;;;;;;;;;;;;;;;7.12;75.51;101807.60;1772291;81;21037;-83
2021/04/18 02:28:04;;;;;;;;;;;;;;;7.06;75.41;101801.61;1772422;80;20287;-83
2021/04/18 02:30:31;;;;;;;;;;;;;;;6.99;75.44;101803.39;1772450;80;20274;-82
2021/04/18 02:32:59;;;;;;;;;;;;;;;6.92;75.54;101797.31;1772227;81;21880;-82
2021/04/18 02:35:26;;;;;;;;;;;;;;;6.87;75.61;101798.75;1772466;81;20269;-83
2021/04/18 02:37:52;;;;;;;;;;;;;;;6.81;75.68;101805.47;1772450;81;20235;-83
2021/04/18 02:40:19;;;;;;;;;;;;;;;6.78;75.84;101800.46;1772279;80;20345;-83
2021/04/18 02:42:46;;;;;;;;;;;;;;;6.75;75.98;101797.24;1772392;80;20314;-83
2021/04/18 02:45:13;;;;;;;;;;;;;;;6.75;76.01;101792.42;1772399;80;21888;-83
2021/04/18 02:47:40;;;;;;;;;;;;;;;6.72;76.05;101790.55;1772298;80;20357;-83
2021/04/18 02:50:08;;;;;;;;;;;;;;;6.69;76.07;101784.23;1772217;81;20555;-83
2021/04/18 02:52:35;;;;;;;;;;;;;;;6.64;76.10;101779.14;1772488;81;20315;-82
2021/04/18 02:55:02;;;;;;;;;;;;;;;6.63;76.20;101785.20;1772568;81;20258;-83
2021/04/18 02:57:35;;;;;;;;;;;;;;;6.60;76.30;101785.91;1772291;80;21985;-84
2021/04/18 03:00:02;;;;;;;;;;;;;;;6.57;76.28;101785.75;1772527;81;20238;-84
2021/04/18 03:02:29;;;;;;;;;;;;;;;6.54;76.37;101786.87;1772403;81;20263;-83
2021/04/18 03:04:59;;;;;;;;;;;;;;;6.51;76.39;101783.64;1772259;81;20376;-83
2021/04/18 03:07:25;;;;;;;;;;;;;;;6.48;76.48;101780.88;1772178;81;20325;-83
2021/04/18 03:09:51;;;;;;;;;;;;;;;6.46;76.54;101788.11;1772373;80;21882;-83
2021/04/18 03:12:18;;;;;;;;;;;;;;;6.41;76.57;101778.70;1772104;81;21087;-84
2021/04/18 03:14:45;;;;;;;;;;;;;;;6.38;76.61;101783.36;1772235;81;20286;-84
2021/04/18 03:17:12;;;;;;;;;;;;;;;6.35;76.71;101777.94;1772367;81;20343;-85
2021/04/18 03:19:39;;;;;;;;;;;;;;;6.34;76.77;101781.36;1772422;81;20218;-86
2021/04/18 03:22:06;;;;;;;;;;;;;;;6.33;76.83;101781.30;1772428;81;22020;-87
2021/04/18 03:24:36;;;;;;;;;;;;;;;6.31;76.86;101783.81;1772473;81;20270;-84
2021/04/18 03:27:02;;;;;;;;;;;;;;;6.26;76.87;101778.70;1772304;81;20230;-84
2021/04/18 03:29:28;;;;;;;;;;;;;;;6.26;76.94;101785.25;1772403;81;20540;-85
2021/04/18 03:31:55;;;;;;;;;;;;;;;6.26;77.03;101782.63;1772351;81;20605;-83
2021/04/18 03:34:22;;;;;;;;;;;;;;;6.26;77.07;101783.94;1772447;81;21906;-83
2021/04/18 03:36:49;;;;;;;;;;;;;;;6.25;77.10;101786.08;1772361;81;20250;-83
2021/04/18 03:39:16;;;;;;;;;;;;;;;6.26;77.11;101787.86;1772368;81;20290;-84
2021/04/18 03:41:43;;;;;;;;;;;;;;;6.23;77.12;101786.36;1772376;81;20750;-85
2021/04/18 03:44:10;;;;;;;;;;;;;;;6.22;77.09;101789.39;1772466;81;20314;-84
2021/04/18 03:46:37;;;;;;;;;;;;;;;6.19;77.09;101791.84;1772278;81;22774;-83
2021/04/18 03:49:04;;;;;;;;;;;;;;;6.18;77.15;101783.91;1772368;81;21244;-84
2021/04/18 03:51:30;;;;;;;;;;;;;;;6.19;77.22;101785.31;1772336;80;20258;-83
2021/04/18 03:53:57;;;;;;;;;;;;;;;6.23;77.33;101787.28;1772324;81;20309;-84
2021/04/18 03:56:24;;;;;;;;;;;;;;;6.28;77.37;101783.62;1772292;81;20250;-83
2021/04/18 03:58:51;;;;;;;;;;;;;;;6.35;77.42;101779.25;1772393;80;21833;-83
2021/04/18 04:01:18;;;;;;;;;;;;;;;6.48;77.57;101779.56;1772197;81;20571;-83
2021/04/18 04:03:45;;;;;;;;;;;;;;;6.63;77.43;101782.17;1772456;81;20294;-83
2021/04/18 04:06:12;;;;;;;;;;;;;;;6.73;77.36;101778.36;1772399;81;20314;-84
2021/04/18 04:08:39;;;;;;;;;;;;;;;6.85;77.27;101787.30;1772448;81;20306;-84
2021/04/18 04:11:09;;;;;;;;;;;;;;;6.95;77.16;101787.91;1772475;80;21712;-84
2021/04/18 04:13:36;;;;;;;;;;;;;;;7.03;76.93;101789.65;1772430;81;21103;-86
2021/04/18 04:16:03;;;;;;;;;;;;;;;7.06;76.70;101787.22;1772422;81;20468;-85
2021/04/18 04:18:31;;;;;;;;;;;;;;;7.10;76.64;101794.84;1772333;80;20306;-83
2021/04/18 04:21:03;;;;;;;;;;;;;;;7.19;76.85;101798.86;1772500;80;20247;-85
2021/04/18 04:23:30;;;;;;;;;;;;;;;7.48;76.96;101799.55;1772448;80;21899;-84
2021/04/18 04:25:57;;;;;;;;;;;;;;;7.77;76.85;101806.37;1772425;81;20293;-85
2021/04/18 04:28:24;;;;;;;;;;;;;;;7.90;76.34;101802.69;1772471;81;20254;-84
2021/04/18 04:30:51;;;;;;;;;;;;;;;8.00;76.08;101801.44;1772253;80;20303;-83
2021/04/18 04:33:18;;;;;;;;;;;;;;;8.11;76.11;101805.94;1771902;81;20279;-84
2021/04/18 04:35:44;;;;;;;;;;;;;;;8.36;76.10;101808.09;1771952;81;21958;-83
2021/04/18 04:38:11;;;;;;;;;;;;;;;8.77;76.41;101804.05;1772170;81;20282;-84
2021/04/18 04:40:38;;;;;;;;;;;;;;;9.05;75.38;101797.52;1772130;81;20227;-83
2021/04/18 04:43:05;;;;;;;;;;;;;;;9.14;74.71;101801.48;1772168;80;21281;-83
2021/04/18 04:45:32;;;;;;;;;;;;;;;9.25;74.56;101798.05;1772389;81;20254;-84
2021/04/18 04:47:59;;;;;;;;;;;;;;;9.49;74.58;101804.84;1772354;81;21895;-84
2021/04/18 04:50:26;;;;;;;;;;;;;;;9.82;74.38;101796.70;1772243;81;20247;-84
2021/04/18 04:52:54;;;;;;;;;;;;;;;10.08;73.71;101798.28;1772243;81;20535;-83
2021/04/18 04:55:23;;;;;;;;;;;;;;;10.50;73.90;101801.88;1772215;80;20369;-84
2021/04/18 04:57:49;;;;;;;;;;;;;;;11.24;73.84;101796.97;1772101;81;20340;-83
2021/04/18 05:00:17;;;;;;;;;;;;;;;12.03;73.52;101794.62;1772204;81;21973;-84
2021/04/18 05:02:44;;;;;;;;;;;;;;;12.62;72.23;101793.16;1772221;81;20269;-85
2021/04/18 05:05:11;;;;;;;;;;;;;;;12.94;70.96;101792.00;1761815;81;20281;-85
2021/04/18 05:07:38;;;;;;;;;;;;;;;12.81;69.81;101789.81;1741915;81;21168;-85
2021/04/18 05:10:08;;;;;;;;;;;;;;;12.77;69.53;101789.24;1742052;82;20272;-84
2021/04/18 05:12:35;;;;;;;;;;;;;;;13.03;69.41;101790.97;1741983;81;21890;-84
2021/04/18 05:15:02;;;;;;;;;;;;;;;13.30;69.18;101790.05;1741841;82;20517;-84
2021/04/18 05:17:29;;;;;;;;;;;;;;;13.64;68.79;101779.59;1745777;81;20301;-83
2021/04/18 05:19:56;;;;;;;;;;;;;;;13.96;68.33;101791.08;1757359;80;20690;-84
2021/04/18 05:22:23;;;;;;;;;;;;;;;14.02;67.41;101787.70;1741994;81;20366;-84
2021/04/18 05:24:49;;;;;;;;;;;;;;;13.80;66.54;101788.01;1741921;82;21963;-83
2021/04/18 05:27:18;;;;;;;;;;;;;;;13.35;65.99;101788.89;1741859;82;20249;-85
2021/04/18 05:29:45;;;;;;;;;;;;;;;13.01;65.94;101790.46;1741788;82;20256;-84
2021/04/18 05:32:12;;;;;;;;;;;;;;;12.80;66.10;101786.28;1741718;82;20534;-84
2021/04/18 05:34:39;;;;;;;;;;;;;;;12.69;66.20;101792.03;1741648;82;20256;-84
2021/04/18 05:37:05;;;;;;;;;;;;;;;12.54;66.32;101792.45;1758538;81;22063;-84
2021/04/18 05:39:32;;;;;;;;;;;;;;;12.52;66.39;101794.12;1752620;81;20302;-83
2021/04/18 05:41:59;;;;;;;;;;;;;;;12.52;66.71;101795.03;1752832;81;20325;-84
2021/04/18 05:44:26;;;;;;;;;;;;;;;12.57;66.72;101793.86;1751259;81;20575;-83
2021/04/18 05:46:53;;;;;;;;;;;;;;;12.47;66.37;101789.13;1758326;81;20285;-84
2021/04/18 05:49:20;;;;;;;;;;;;;;;12.41;66.77;101792.45;1741638;82;22817;-84
2021/04/18 05:51:47;;;;;;;;;;;;;;;12.44;66.90;101789.90;1741658;82;21151;-84
2021/04/18 05:54:13;;;;;;;;;;;;;;;12.49;66.95;101794.03;1741733;81;20350;-84
2021/04/18 05:56:41;;;;;;;;;;;;;;;12.52;66.90;101792.80;1744306;81;20389;-84
2021/04/18 05:59:08;;;;;;;;;;;;;;;12.48;66.63;101794.86;1756810;81;20245;-84
2021/04/18 06:01:34;;;;;;;;;;;;;;;12.45;67.04;101793.03;1756514;81;21884;-84
2021/04/18 06:04:01;;;;;;;;;;;;;;;12.45;66.84;101796.56;1756567;81;20355;-84
2021/04/18 06:06:28;;;;;;;;;;;;;;;12.32;66.64;101801.38;1756738;81;20237;-84
2021/04/18 06:08:55;;;;;;;;;;;;;;;12.21;67.02;101800.99;1756694;81;20522;-85
2021/04/18 06:11:22;;;;;;;;;;;;;;;12.17;67.00;101809.22;1756717;81;20252;-85
2021/04/18 06:13:49;;;;;;;;;;;;;;;12.11;67.01;101809.02;1756633;81;21895;-86
2021/04/18 06:16:16;;;;;;;;;;;;;;;11.96;66.93;101810.67;1756320;81;20829;-87
2021/04/18 06:18:43;;;;;;;;;;;;;;;11.84;67.03;101807.55;1756513;81;20296;-84
2021/04/18 06:21:10;;;;;;;;;;;;;;;11.77;67.22;101809.08;1756655;81;20323;-85
2021/04/18 06:23:37;;;;;;;;;;;;;;;11.65;67.18;101811.24;1756614;81;20281;-86
2021/04/18 06:26:04;;;;;;;;;;;;;;;11.64;67.63;101805.51;1756474;81;22798;-84
2021/04/18 06:28:30;;;;;;;;;;;;;;;11.67;67.69;101809.56;1756380;81;20264;-84
2021/04/18 06:30:57;;;;;;;;;;;;;;;11.68;67.80;101808.30;1756400;81;20327;-83
2021/04/18 06:33:24;;;;;;;;;;;;;;;11.75;67.83;101809.84;1756437;81;20312;-84
2021/04/18 06:35:51;;;;;;;;;;;;;;;11.92;68.20;101802.58;1756345;81;20304;-83
2021/04/18 06:38:20;;;;;;;;;;;;;;;12.17;68.18;101810.55;1756344;81;21884;-82
2021/04/18 06:40:48;;;;;;;;;;;;;;;12.34;68.09;101808.92;1756291;81;21135;-83
2021/04/18 06:43:15;;;;;;;;;;;;;;;12.50;67.89;101811.66;1726909;81;20274;-85
2021/04/18 06:45:43;;;;;;;;;;;;;;;12.58;67.62;101820.76;1756548;81;21251;-83
2021/04/18 06:48:13;;;;;;;;;;;;;;;12.61;67.47;101820.44;1756407;81;20270;-86
2021/04/18 06:50:40;;;;;;;;;;;;;;;12.67;67.53;101826.35;1756494;81;21892;-85
2021/04/18 06:53:10;;;;;;;;;;;;;;;12.76;67.55;101824.42;1756696;81;20213;-85
2021/04/18 06:55:36;;;;;;;;;;;;;;;12.80;67.42;101819.30;1756546;81;20393;-85
2021/04/18 06:58:03;;;;;;;;;;;;;;;12.84;67.54;101818.55;1772584;80;20352;-84
2021/04/18 07:00:30;;;;;;;;;;;;;;;12.93;67.43;101822.33;1781754;80;20312;-84
2021/04/18 07:03:12;;;;;;;;;;;;;;;12.98;67.50;101820.75;1781641;80;22003;-88
2021/04/18 07:05:45;;;;;;;;;;;;;;;13.07;67.49;101828.97;1781795;80;20483;-89
2021/04/18 07:08:26;;;;;;;;;;;;;;;13.12;67.30;101830.42;1782029;80;20274;-88
2021/04/18 07:11:14;;;;;;;;;;;;;;;13.10;67.41;101831.73;1782065;80;20803;-86
2021/04/18 07:13:43;;;;;;;;;;;;;;;13.20;67.39;101827.19;1781760;80;20492;-85
2021/04/18 07:16:25;;;;;;;;;;;;;;;13.28;67.42;101825.21;1782013;80;21997;-84
2021/04/18 07:18:51;;;;;;;;;;;;;;;13.31;67.29;101820.95;1781795;80;20274;-85
2021/04/18 07:21:19;;;;;;;;;;;;;;;13.41;67.36;101814.19;1781817;80;20500;-84
2021/04/18 07:23:46;;;;;;;;;;;;;;;13.47;67.12;101814.37;1781554;80;20349;-84
2021/04/18 07:26:24;;;;;;;;;;;;;;;13.56;67.14;101819.94;1781749;80;20293;-84
2021/04/18 07:28:52;;;;;;;;;;;;;;;13.51;66.64;101827.27;1781724;80;22856;-84
2021/04/18 07:31:34;;;;;;;;;;;;;;;13.44;66.61;101830.16;1781531;80;20544;-84
2021/04/18 07:34:04;;;;;;;;;;;;;;;13.41;66.81;101837.56;1781541;80;21138;-84
2021/04/18 07:36:31;;;;;;;;;;;;;;;13.41;66.81;101830.95;1782081;80;20519;-87
2021/04/18 07:39:08;;;;;;;;;;;;;;;13.45;66.87;101831.05;1782391;80;20261;-91
2021/04/18 07:41:40;;;;;;;;;;;;;;;13.52;66.85;101836.58;1763773;80;21147;-88
2021/04/18 07:44:15;;;;;;;;;;;;;;;13.48;66.53;101840.42;1787757;80;20225;-88
2021/04/18 07:46:47;;;;;;;;;;;;;;;13.43;66.71;101840.69;1762175;80;20254;-90
2021/04/18 07:49:14;;;;;;;;;;;;;;;13.48;66.63;101839.98;1750747;82;21277;-88
2021/04/18 07:51:42;;;;;;;;;;;;;;;13.53;66.66;101845.40;1759745;80;20545;-91
2021/04/18 07:54:10;;;;;;;;;;;;;;;13.59;66.42;101839.88;1751474;81;21894;-87
2021/04/18 07:56:36;;;;;;;;;;;;;;;13.62;66.50;101837.74;1751360;81;20341;-88
2021/04/18 07:59:04;;;;;;;;;;;;;;;13.72;66.61;101836.26;1742258;82;20320;-86
2021/04/18 08:01:36;;;;;;;;;;;;;;;13.90;66.49;101835.48;1741428;81;21219;-87
2021/04/18 08:04:03;;;;;;;;;;;;;;;14.05;66.43;101842.95;1741215;82;20319;-87
2021/04/18 08:06:30;;;;;;;;;;;;;;;14.19;66.22;101843.36;1741115;82;21960;-86
2021/04/18 08:08:57;;;;;;;;;;;;;;;14.26;65.96;101845.73;1740999;81;21175;-86
2021/04/18 08:11:24;;;;;;;;;;;;;;;14.36;65.81;101845.16;1741168;81;20329;-86
2021/04/18 08:13:52;;;;;;;;;;;;;;;14.50;65.89;101845.50;1741007;81;21290;-86
2021/04/18 08:16:30;;;;;;;;;;;;;;;14.67;65.65;101842.00;1741401;81;20253;-86
2021/04/18 08:19:07;;;;;;;;;;;;;;;14.83;65.53;101837.97;1741736;82;21389;-86
2021/04/18 08:21:38;;;;;;;;;;;;;;;14.97;65.37;101840.10;1741459;82;20492;-86
2021/04/18 08:24:20;;;;;;;;;;;;;;;15.12;65.22;101831.62;1741831;81;20284;-86
2021/04/18 08:27:08;;;;;;;;;;;;;;;15.29;65.03;101833.78;1741665;82;21248;-85
2021/04/18 08:29:36;;;;;;;;;;;;;;;15.48;64.90;101829.78;1741695;82;20544;-85
2021/04/18 08:32:09;;;;;;;;;;;;;;;15.65;64.40;101827.05;1741693;82;22015;-85
2021/04/18 08:34:42;;;;;;;;;;;;;;;15.78;64.20;101824.70;1741441;81;20277;-85
2021/04/18 08:37:15;;;;;;;;;;;;;;;15.84;63.92;101818.19;1741381;82;20379;-85
2021/04/18 08:39:42;;;;;;;;;;;;;;;15.84;63.80;101812.47;1741872;82;20313;-85
2021/04/18 08:42:10;;;;;;;;;;;;;;;15.84;63.38;101812.47;1741744;81;20236;-85
2021/04/18 08:44:47;;;;;;;;;;;;;;;15.74;63.40;101815.34;1741697;82;21903;-86
2021/04/18 08:47:15;;;;;;;;;;;;;;;15.69;63.45;101823.63;1741808;82;20300;-85
2021/04/18 08:49:50;;;;;;;;;;;;;;;15.61;63.36;101818.56;1741847;82;20348;-85
2021/04/18 08:52:25;;;;;;;;;;;;;;;15.60;63.48;101826.48;1697198;82;40474;-85
2021/04/18 08:54:56;;;;;;;;;;;;;;;15.68;63.78;101824.92;1741856;82;20537;-85
2021/04/18 08:57:26;;;;;;;;;;;;;;;15.81;63.56;101822.12;1742704;81;21900;-86
2021/04/18 08:59:55;;;;;;;;;;;;;;;15.78;63.35;101821.61;1756110;81;20267;-85
2021/04/18 09:02:26;;;;;;;;;;;;;;;15.83;63.38;101818.62;1756565;81;20553;-85
2021/04/18 09:04:55;;;;;;;;;;;;;;;15.96;63.38;101811.81;1756763;81;20261;-85
2021/04/18 09:07:25;;;;;;;;;;;;;;;16.03;63.20;101812.40;1756648;81;20228;-85
2021/04/18 09:09:52;;;;;;;;;;;;;;;16.14;63.15;101809.92;1756746;81;21962;-85
2021/04/18 09:12:19;;;;;;;;;;;;;;;16.31;63.17;101815.14;1727054;81;20263;-85
2021/04/18 09:14:47;;;;;;;;;;;;;;;16.52;62.98;101810.64;1756723;81;20275;-85
2021/04/18 09:17:17;;;;;;;;;;;;;;;16.64;62.69;101807.28;1756518;81;21256;-85
2021/04/18 09:19:52;;;;;;;;;;;;;;;16.69;62.42;101810.92;1756471;81;20541;-86
2021/04/18 09:22:22;;;;;;;;;;;;;;;16.68;62.05;101820.20;1741400;81;22083;-86
2021/04/18 09:24:54;;;;;;;;;;;;;;;16.49;61.94;101821.20;1756566;81;20249;-86
2021/04/18 09:27:27;;;;;;;;;;;;;;;16.45;62.11;101819.37;1756709;81;20263;-86
2021/04/18 09:29:57;;;;;;;;;;;;;;;16.49;62.26;101817.22;1756643;81;20267;-86
2021/04/18 09:32:28;;;;;;;;;;;;;;;16.57;62.16;101820.01;1756713;81;20501;-85
2021/04/18 09:34:55;;;;;;;;;;;;;;;16.59;61.89;101829.34;1756521;81;21181;-85
2021/04/18 09:37:36;;;;;;;;;;;;;;;16.56;61.96;101828.87;1756716;81;21131;-85
2021/04/18 09:40:16;;;;;;;;;;;;;;;16.48;61.63;101830.50;1756594;81;20299;-85
2021/04/18 09:42:49;;;;;;;;;;;;;;;16.31;61.74;101828.43;1756478;81;21305;-86
2021/04/18 09:45:26;;;;;;;;;;;;;;;16.24;61.74;101849.09;1756657;81;20565;-86
2021/04/18 09:47:55;;;;;;;;;;;;;;;16.05;61.79;101862.45;1756707;81;21944;-85
2021/04/18 09:50:25;;;;;;;;;;;;;;;15.94;61.94;101859.56;1756686;81;20269;-85
2021/04/18 09:52:52;;;;;;;;;;;;;;;15.88;62.08;101862.11;1756751;81;20254;-85
2021/04/18 09:55:24;;;;;;;;;;;;;;;15.82;62.21;101869.03;1756721;81;20305;-85
2021/04/18 09:57:53;;;;;;;;;;;;;;;15.65;62.16;101871.28;1760607;80;20238;-85
2021/04/18 10:00:23;;;;;;;;;;;;;;;15.44;62.13;101871.27;1783090;80;21888;-86
2021/04/18 10:03:03;;;;;;;;;;;;;;;15.14;62.26;101868.36;1783145;80;20487;-85
2021/04/18 10:05:32;;;;;;;;;;;;;;;14.87;62.59;101863.28;1778985;80;20241;-85
2021/04/18 10:08:20;;;;;;;;;;;;;;;14.72;63.23;101860.25;1783105;80;20555;-85
2021/04/18 10:10:51;;;;;;;;;;;;;;;14.64;63.82;101848.13;1783215;80;20266;-86
2021/04/18 10:13:42;;;;;;;;;;;;;;;14.73;64.33;101850.10;1783251;80;22095;-85
2021/04/18 10:16:10;;;;;;;;;;;;;;;14.85;64.51;101852.19;1770404;80;20374;-84
2021/04/18 10:18:38;;;;;;;;;;;;;;;14.90;64.62;101860.72;1756711;81;20276;-86
2021/04/18 10:21:18;;;;;;;;;;;;;;;14.90;64.60;101854.50;1756509;80;20316;-85
2021/04/18 10:23:46;;;;;;;;;;;;;;;14.85;64.95;101856.16;1783093;80;20258;-84
2021/04/18 10:28:55;;;;;;;;;;;;;;;14.82;65.47;101866.23;1853783;76;20788;-85
2021/04/18 10:31:23;;;;;;;;;;;;;;;14.78;65.46;101860.40;1824724;78;20269;-88
2021/04/18 10:33:50;;;;;;;;;;;;;;;14.85;65.63;101867.66;1824853;78;22684;-86
2021/04/18 10:36:17;;;;;;;;;;;;;;;14.99;65.94;101860.47;1824532;78;20257;-85
2021/04/18 10:38:44;;;;;;;;;;;;;;;15.08;65.67;101854.07;1824499;78;20304;-85
2021/04/18 10:41:11;;;;;;;;;;;;;;;15.19;65.76;101851.24;1824418;78;20213;-85
2021/04/18 10:43:37;;;;;;;;;;;;;;;15.30;65.75;101847.09;1824773;78;20261;-86
2021/04/18 10:46:04;;;;;;;;;;;;;;;15.42;65.57;101853.53;1824641;78;21894;-84
2021/04/18 10:48:31;;;;;;;;;;;;;;;15.45;65.46;101863.79;1824477;78;20400;-84
2021/04/18 10:50:58;;;;;;;;;;;;;;;15.46;65.20;101867.33;1824449;78;20220;-86
2021/04/18 10:53:25;;;;;;;;;;;;;;;15.47;65.36;101863.83;1824566;78;20252;-86
2021/04/18 10:55:52;;;;;;;;;;;;;;;15.57;65.39;101863.16;1824795;78;20297;-87
2021/04/18 10:58:19;;;;;;;;;;;;;;;15.69;65.17;101861.20;1824702;78;21857;-86
2021/04/18 11:00:46;;;;;;;;;;;;;;;15.79;64.66;101866.33;1824337;78;20305;-85
2021/04/18 11:03:13;;;;;;;;;;;;;;;15.91;64.38;101870.55;1824634;78;20351;-86
2021/04/18 11:05:40;;;;;;;;;;;;;;;16.01;64.13;101872.56;1824507;78;20245;-86
2021/04/18 11:08:10;;;;;;;;;;;;;;;16.09;64.06;101876.25;1824369;78;20225;-86
2021/04/18 11:10:35;;;;;;;;;;;;;;;16.23;64.15;101871.64;1824448;78;22041;-85
2021/04/18 11:13:02;;;;;;;;;;;;;;;16.37;63.82;101867.50;1824476;78;20245;-84
2021/04/18 11:15:29;;;;;;;;;;;;;;;16.53;63.87;101864.68;1824601;78;20288;-85
2021/04/18 11:17:56;;;;;;;;;;;;;;;16.78;63.77;101869.10;1824293;78;20304;-85
2021/04/18 11:20:25;;;;;;;;;;;;;;;16.99;63.27;101868.63;1824453;78;20253;-85
2021/04/18 11:22:51;;;;;;;;;;;;;;;17.14;63.11;101860.00;1824330;78;24111;-86
2021/04/18 11:25:18;;;;;;;;;;;;;;;17.36;62.85;101862.53;1824118;78;20535;-85
2021/04/18 11:27:46;;;;;;;;;;;;;;;17.43;62.48;101865.30;1825515;78;20283;-83
2021/04/18 11:30:14;;;;;;;;;;;;;;;17.48;62.39;101867.60;1827889;78;20229;-84
2021/04/18 11:32:41;;;;;;;;;;;;;;;17.51;61.94;101863.19;1827485;78;20217;-82
2021/04/18 11:35:11;;;;;;;;;;;;;;;17.49;61.83;101856.51;1827070;78;22061;-84
2021/04/18 11:37:40;;;;;;;;;;;;;;;17.40;61.56;101861.70;1827493;78;21154;-83
2021/04/18 11:40:09;;;;;;;;;;;;;;;17.42;61.79;101862.20;1827101;78;20268;-84
2021/04/18 11:42:36;;;;;;;;;;;;;;;17.46;61.58;101853.38;1827099;78;20285;-87
2021/04/18 11:45:04;;;;;;;;;;;;;;;17.47;61.28;101851.19;1827326;78;20249;-85
2021/04/18 11:47:31;;;;;;;;;;;;;;;17.45;61.43;101849.36;1827208;78;21777;-84
2021/04/18 11:50:00;;;;;;;;;;;;;;;17.35;61.06;101850.11;1827059;78;20241;-84
2021/04/18 11:52:27;;;;;;;;;;;;;;;17.18;60.94;101856.52;1761005;80;20320;-86
2021/04/18 11:54:53;;;;;;;;;;;;;;;17.01;61.15;101856.25;1791250;80;20288;-85
2021/04/18 11:57:20;;;;;;;;;;;;;;;16.87;61.19;101856.00;1790310;80;20726;-85
2021/04/18 11:59:47;;;;;;;;;;;;;;;16.82;61.62;101850.63;1790959;80;21945;-87
2021/04/18 12:02:14;;;;;;;;;;;;;;;16.96;61.72;101853.94;1790344;80;20351;-85
2021/04/18 12:04:41;;;;;;;;;;;;;;;17.10;61.42;101852.41;1790937;80;20819;-85
2021/04/18 12:07:07;;;;;;;;;;;;;;;17.25;61.47;101849.09;1790359;80;20517;-84
2021/04/18 12:09:34;;;;;;;;;;;;;;;17.35;61.06;101851.00;1791532;80;20289;-89
2021/04/18 12:12:01;;;;;;;;;;;;;;;17.43;61.22;101845.78;1790789;80;21879;-87
2021/04/18 12:14:28;;;;;;;;;;;;;;;17.51;60.71;101844.11;1791373;80;21067;-85
2021/04/18 12:16:55;;;;;;;;;;;;;;;17.51;60.70;101848.11;1790914;80;20312;-87
2021/04/18 12:19:22;;;;;;;;;;;;;;;17.49;60.48;101844.53;1791432;80;20277;-87
2021/04/18 12:21:49;;;;;;;;;;;;;;;17.48;60.53;101845.42;1791004;80;20312;-87
2021/04/18 12:24:16;;;;;;;;;;;;;;;17.51;60.68;101841.45;1791500;80;21888;-87
2021/04/18 12:26:42;;;;;;;;;;;;;;;17.52;60.74;101844.59;1790917;80;20260;-88
2021/04/18 12:29:10;;;;;;;;;;;;;;;17.53;60.45;101849.05;1786860;80;20233;-84
2021/04/18 12:31:40;;;;;;;;;;;;;;;17.55;60.28;101845.97;1788396;79;20248;-87
2021/04/18 12:34:06;;;;;;;;;;;;;;;17.56;60.16;101842.86;1785801;80;20261;-88
2021/04/18 12:36:40;;;;;;;;;;;;;;;17.56;60.01;101839.75;1787478;79;22792;-84
2021/04/18 12:39:05;;;;;;;;;;;;;;;17.49;59.99;101833.88;1749852;80;20352;-86
2021/04/18 12:41:32;;;;;;;;;;;;;;;17.51;60.22;101830.80;1751443;82;20303;-86
2021/04/18 12:44:00;;;;;;;;;;;;;;;17.60;59.97;101826.94;1751534;82;20259;-87
2021/04/18 12:46:27;;;;;;;;;;;;;;;17.56;59.75;101830.44;1750959;82;20309;-87
2021/04/18 12:49:00;;;;;;;;;;;;;;;17.47;59.38;101824.58;1750796;80;22924;-85
2021/04/18 12:51:28;;;;;;;;;;;;;;;17.36;59.09;101819.54;1750577;82;20211;-86